createdAt,value
2023-06-30T00:01:49.504Z,15.62
2023-06-30T00:04:19.008Z,15.58
2023-06-30T00:06:50.570Z,15.55
2023-06-30T00:09:19.215Z,15.68
2023-06-30T00:11:47.151Z,15.62
2023-06-30T00:14:16.384Z,15.64
2023-06-30T00:16:44.088Z,15.51
2023-06-30T00:19:11.995Z,15.44
2023-06-30T00:21:42.785Z,15.36
2023-06-30T00:24:11.793Z,15.23
2023-06-30T00:26:39.826Z,15.11
2023-06-30T00:29:08.034Z,15.13
2023-06-30T00:31:38.504Z,15.03
2023-06-30T00:34:06.502Z,15.07
2023-06-30T00:36:34.550Z,15.07
2023-06-30T00:39:02.502Z,14.93
2023-06-30T00:41:30.607Z,14.87
2023-06-30T00:43:59.382Z,14.77
2023-06-30T00:46:27.538Z,14.77
2023-06-30T00:48:59.315Z,14.77
2023-06-30T00:51:27.488Z,14.79
2023-06-30T00:53:57.494Z,14.73
2023-06-30T00:56:27.400Z,14.75
2023-06-30T00:58:55.536Z,14.79
2023-06-30T01:01:29.006Z,14.80
2023-06-30T01:04:10.794Z,14.73
2023-06-30T01:06:45.111Z,14.79
2023-06-30T01:09:16.973Z,14.77
2023-06-30T01:11:45.608Z,14.79
2023-06-30T01:14:14.330Z,14.79
2023-06-30T01:16:44.533Z,14.82
2023-06-30T01:19:27.073Z,14.89
2023-06-30T01:21:57.711Z,14.92
2023-06-30T01:24:28.146Z,14.92
2023-06-30T01:26:56.180Z,14.92
2023-06-30T01:29:24.566Z,15.07
2023-06-30T01:31:52.566Z,15.68
2023-06-30T01:34:21.888Z,16.26
2023-06-30T01:36:50.492Z,16.43
2023-06-30T01:39:18.473Z,16.79
2023-06-30T01:41:47.298Z,16.95
2023-06-30T01:44:15.287Z,17.12
2023-06-30T01:46:43.449Z,17.11
2023-06-30T01:49:13.302Z,17.10
2023-06-30T01:51:42.546Z,17.14
2023-06-30T01:54:10.428Z,17.21
2023-06-30T01:56:38.321Z,17.18
2023-06-30T01:59:06.167Z,17.27
2023-06-30T02:01:34.397Z,17.42
2023-06-30T02:04:02.441Z,17.11
2023-06-30T02:06:30.334Z,17.17
2023-06-30T02:08:59.580Z,17.36
2023-06-30T02:11:27.443Z,17.10
2023-06-30T02:13:55.354Z,17.29
2023-06-30T02:16:23.484Z,17.10
2023-06-30T02:18:55.843Z,17.11
2023-06-30T02:21:23.835Z,17.03
2023-06-30T02:23:51.759Z,17.21
2023-06-30T02:26:21.123Z,17.11
2023-06-30T02:28:49.014Z,17.07
2023-06-30T02:31:18.928Z,17.10
2023-06-30T02:33:46.856Z,16.91
2023-06-30T02:36:14.753Z,17.03
2023-06-30T02:38:42.604Z,17.22
2023-06-30T02:41:10.491Z,17.15
2023-06-30T02:43:39.680Z,17.15
2023-06-30T02:46:07.592Z,16.98
2023-06-30T02:48:35.527Z,17.00
2023-06-30T02:51:03.764Z,17.11
2023-06-30T02:53:32.229Z,16.85
2023-06-30T02:56:00.190Z,16.76
2023-06-30T02:58:28.287Z,16.97
2023-06-30T03:00:58.896Z,16.92
2023-06-30T03:03:26.985Z,17.01
2023-06-30T03:05:55.426Z,16.90
2023-06-30T03:08:23.754Z,16.85
2023-06-30T03:10:51.660Z,16.98
2023-06-30T03:13:19.980Z,17.27
2023-06-30T03:15:48.121Z,17.04
2023-06-30T03:18:17.682Z,17.18
2023-06-30T03:20:45.682Z,17.04
2023-06-30T03:23:14.624Z,17.04
2023-06-30T03:25:43.458Z,17.18
2023-06-30T03:28:11.703Z,17.35
2023-06-30T03:30:39.577Z,17.35
2023-06-30T03:33:07.539Z,17.27
2023-06-30T03:35:36.817Z,16.95
2023-06-30T03:38:04.620Z,17.10
2023-06-30T03:40:32.541Z,17.00
2023-06-30T03:43:00.473Z,16.90
2023-06-30T03:45:28.390Z,16.84
2023-06-30T03:47:56.272Z,17.14
2023-06-30T03:50:24.355Z,17.15
2023-06-30T03:52:53.610Z,17.00
2023-06-30T03:55:21.326Z,17.25
2023-06-30T03:57:49.161Z,17.42
2023-06-30T04:00:17.894Z,17.36
2023-06-30T04:02:47.798Z,17.25
2023-06-30T04:05:15.710Z,17.41
2023-06-30T04:07:43.634Z,17.21
2023-06-30T04:10:13.086Z,17.22
2023-06-30T04:12:40.946Z,17.38
2023-06-30T04:15:11.704Z,17.29
2023-06-30T04:17:39.695Z,17.14
2023-06-30T04:20:10.719Z,17.10
2023-06-30T04:22:39.428Z,17.04
2023-06-30T04:25:08.916Z,16.84
2023-06-30T04:27:38.149Z,16.84
2023-06-30T04:30:06.420Z,17.07
2023-06-30T04:32:34.290Z,17.25
2023-06-30T04:35:02.205Z,17.31
2023-06-30T04:37:31.051Z,17.22
2023-06-30T04:39:59.023Z,17.38
2023-06-30T04:42:29.183Z,17.53
2023-06-30T04:44:58.412Z,17.56
2023-06-30T04:47:27.469Z,17.53
2023-06-30T04:49:55.458Z,17.63
2023-06-30T04:52:23.311Z,17.66
2023-06-30T04:54:51.250Z,17.89
2023-06-30T04:57:19.101Z,17.83
2023-06-30T04:59:46.934Z,17.61
2023-06-30T05:02:16.152Z,17.68
2023-06-30T05:04:43.805Z,17.82
2023-06-30T05:07:12.122Z,17.94
2023-06-30T05:09:40.047Z,18.13
2023-06-30T05:12:08.922Z,17.96
2023-06-30T05:14:36.889Z,18.33
2023-06-30T05:17:05.144Z,18.36
2023-06-30T05:19:34.344Z,18.48
2023-06-30T05:22:01.968Z,18.43
2023-06-30T05:24:29.836Z,18.24
2023-06-30T05:26:58.580Z,17.94
2023-06-30T05:29:27.708Z,18.33
2023-06-30T05:31:56.765Z,18.40
2023-06-30T05:34:24.602Z,18.31
2023-06-30T05:36:53.924Z,18.26
2023-06-30T05:39:21.732Z,18.75
2023-06-30T05:41:49.631Z,19.40
2023-06-30T05:44:17.544Z,19.49
2023-06-30T05:46:45.538Z,20.46
2023-06-30T05:49:13.606Z,21.47
2023-06-30T05:51:41.496Z,21.96
2023-06-30T05:54:11.397Z,22.15
2023-06-30T05:56:39.297Z,23.48
2023-06-30T05:59:10.705Z,23.32
2023-06-30T06:01:39.635Z,24.28
2023-06-30T06:04:11.746Z,24.50
2023-06-30T06:06:40.130Z,25.01
2023-06-30T06:09:08.167Z,25.09
2023-06-30T06:11:37.352Z,25.58
2023-06-30T06:14:05.235Z,25.86
2023-06-30T06:16:33.145Z,26.41
2023-06-30T06:19:01.005Z,27.00
2023-06-30T06:21:29.482Z,27.33
2023-06-30T06:23:57.610Z,27.74
2023-06-30T06:26:25.443Z,28.62
2023-06-30T06:28:54.638Z,28.93
2023-06-30T06:31:25.703Z,28.69
2023-06-30T06:33:55.865Z,28.73
2023-06-30T06:36:24.065Z,29.17
2023-06-30T06:38:51.921Z,27.49
2023-06-30T06:41:19.781Z,27.84
2023-06-30T06:43:47.613Z,28.63
2023-06-30T06:46:16.897Z,28.31
2023-06-30T06:48:44.870Z,29.13
2023-06-30T06:51:12.978Z,29.08
2023-06-30T06:53:40.854Z,28.62
2023-06-30T06:56:08.728Z,28.79
2023-06-30T06:58:37.451Z,28.67
2023-06-30T07:01:05.382Z,29.76
2023-06-30T07:03:35.354Z,30.30
2023-06-30T07:06:03.708Z,31.29
2023-06-30T07:08:36.086Z,31.04
2023-06-30T07:11:05.054Z,30.67
2023-06-30T07:13:32.899Z,31.36
2023-06-30T07:16:00.873Z,30.27
2023-06-30T07:18:28.814Z,30.95
2023-06-30T07:20:58.054Z,32.16
2023-06-30T07:23:27.250Z,32.06
2023-06-30T07:25:55.694Z,32.14
2023-06-30T07:28:23.562Z,32.35
2023-06-30T07:30:51.461Z,31.66
2023-06-30T07:33:19.515Z,31.41
2023-06-30T07:35:47.649Z,32.14
2023-06-30T07:38:17.064Z,32.35
2023-06-30T07:40:56.132Z,32.14
2023-06-30T07:43:25.265Z,32.86
2023-06-30T07:45:53.270Z,33.80
2023-06-30T07:48:21.375Z,33.57
2023-06-30T07:51:03.387Z,34.20
2023-06-30T07:53:37.538Z,33.37
2023-06-30T07:56:05.824Z,33.86
2023-06-30T07:58:34.214Z,33.33
2023-06-30T08:01:02.095Z,32.98
2023-06-30T08:03:30.246Z,33.25
2023-06-30T08:06:00.285Z,33.21
2023-06-30T08:08:28.774Z,32.72
2023-06-30T08:10:58.122Z,32.65
2023-06-30T08:13:26.329Z,33.18
2023-06-30T08:15:54.437Z,32.14
2023-06-30T08:18:32.129Z,33.15
2023-06-30T08:21:02.663Z,32.45
2023-06-30T08:23:31.097Z,32.37
2023-06-30T08:26:00.237Z,32.75
2023-06-30T08:28:28.129Z,33.43
2023-06-30T08:30:56.261Z,32.85
2023-06-30T08:36:02.299Z,32.92
2023-06-30T08:38:30.467Z,32.82
2023-06-30T08:40:59.128Z,32.57
2023-06-30T08:43:30.096Z,32.76
2023-06-30T08:45:58.051Z,33.53
2023-06-30T08:48:26.678Z,33.86
2023-06-30T08:50:55.586Z,32.79
2023-06-30T08:53:25.164Z,32.19
2023-06-30T08:55:53.069Z,30.20
2023-06-30T08:58:26.568Z,30.83
2023-06-30T09:00:57.310Z,31.16
2023-06-30T09:03:25.946Z,31.14
2023-06-30T09:05:57.087Z,31.86
2023-06-30T09:08:26.096Z,32.34
2023-06-30T09:10:56.077Z,32.19
2023-06-30T09:13:25.908Z,32.09
2023-06-30T09:15:59.680Z,31.94
2023-06-30T09:18:28.045Z,31.52
2023-06-30T09:20:55.737Z,31.49
2023-06-30T09:23:23.896Z,31.05
2023-06-30T09:25:54.323Z,30.83
2023-06-30T09:28:22.250Z,29.76
2023-06-30T09:30:50.193Z,30.36
2023-06-30T09:33:21.746Z,29.73
2023-06-30T09:35:50.223Z,29.85
2023-06-30T09:38:19.877Z,29.86
2023-06-30T09:40:49.272Z,29.15
2023-06-30T09:43:19.344Z,28.87
2023-06-30T09:45:49.577Z,29.38
2023-06-30T09:48:19.416Z,29.13
2023-06-30T09:50:47.253Z,29.28
2023-06-30T09:53:20.707Z,29.44
2023-06-30T09:55:50.605Z,28.52
2023-06-30T09:58:19.934Z,29.28
2023-06-30T10:00:49.320Z,29.10
2023-06-30T10:03:18.371Z,29.18
2023-06-30T10:05:50.354Z,29.52
2023-06-30T10:08:18.798Z,28.92
2023-06-30T10:10:46.790Z,28.55
2023-06-30T10:13:17.818Z,28.64
2023-06-30T10:15:46.698Z,29.52
2023-06-30T10:18:17.966Z,29.07
2023-06-30T10:20:49.577Z,28.89
2023-06-30T10:23:21.640Z,28.64
2023-06-30T10:25:51.937Z,28.86
2023-06-30T10:28:20.801Z,28.59
2023-06-30T10:30:52.123Z,28.49
2023-06-30T10:33:20.253Z,28.89
2023-06-30T10:35:49.655Z,27.67
2023-06-30T10:38:19.283Z,28.57
2023-06-30T10:40:48.796Z,28.13
2023-06-30T10:43:16.763Z,28.53
2023-06-30T10:46:08.116Z,28.63
2023-06-30T10:48:37.652Z,29.57
2023-06-30T10:51:06.531Z,29.89
2023-06-30T10:53:37.107Z,29.51
2023-06-30T10:56:05.394Z,30.09
2023-06-30T10:58:41.860Z,30.14
2023-06-30T11:01:09.758Z,29.82
2023-06-30T11:04:14.793Z,30.24
2023-06-30T11:06:47.650Z,30.12
2023-06-30T11:09:16.895Z,29.82
2023-06-30T11:11:51.475Z,29.64
2023-06-30T11:14:33.918Z,29.85
2023-06-30T11:17:06.774Z,28.48
2023-06-30T11:19:37.231Z,28.55
2023-06-30T11:22:23.627Z,28.35
2023-06-30T11:24:53.286Z,28.11
2023-06-30T11:27:21.269Z,28.21
2023-06-30T11:29:51.045Z,28.28
2023-06-30T11:32:19.861Z,28.19
2023-06-30T11:34:47.858Z,28.29
2023-06-30T11:37:15.744Z,29.28
2023-06-30T11:39:53.239Z,29.00
2023-06-30T11:42:21.400Z,29.55
2023-06-30T11:44:51.018Z,28.42
2023-06-30T11:47:20.601Z,28.41
2023-06-30T11:49:49.145Z,27.74
2023-06-30T11:52:18.089Z,26.78
2023-06-30T11:54:46.358Z,26.37
2023-06-30T11:57:15.549Z,27.23
2023-06-30T11:59:43.483Z,28.18
2023-06-30T12:02:14.011Z,29.03
2023-06-30T12:04:49.293Z,29.38
2023-06-30T12:07:17.484Z,28.25
2023-06-30T12:09:47.626Z,29.13
2023-06-30T12:12:28.951Z,28.04
2023-06-30T12:14:57.642Z,27.22
2023-06-30T12:17:28.131Z,28.42
2023-06-30T12:19:56.062Z,28.83
2023-06-30T12:22:28.581Z,28.33
2023-06-30T12:24:57.272Z,27.61
2023-06-30T12:27:27.308Z,27.64
2023-06-30T12:29:56.876Z,27.74
2023-06-30T12:32:28.972Z,26.24
2023-06-30T12:35:04.146Z,26.71
2023-06-30T12:37:33.178Z,27.72
2023-06-30T12:40:01.072Z,27.88
2023-06-30T12:42:32.180Z,28.33
2023-06-30T12:45:01.425Z,28.46
2023-06-30T12:47:29.322Z,27.85
2023-06-30T12:49:57.359Z,29.03
2023-06-30T12:52:25.316Z,28.35
2023-06-30T12:54:54.344Z,27.61
2023-06-30T12:57:22.377Z,26.44
2023-06-30T12:59:50.342Z,26.69
2023-06-30T13:02:19.679Z,27.51
2023-06-30T13:04:47.537Z,27.84
2023-06-30T13:07:15.480Z,27.90
2023-06-30T13:09:43.355Z,27.43
2023-06-30T13:12:11.752Z,26.22
2023-06-30T13:14:39.700Z,26.14
2023-06-30T13:17:08.061Z,25.58
2023-06-30T13:19:37.454Z,25.46
2023-06-30T13:22:05.525Z,25.77
2023-06-30T13:24:33.662Z,26.18
2023-06-30T13:27:01.681Z,26.32
2023-06-30T13:29:29.613Z,26.18
2023-06-30T13:31:57.561Z,26.37
2023-06-30T13:34:25.536Z,26.47
2023-06-30T13:36:54.817Z,26.34
2023-06-30T13:39:22.763Z,25.80
2023-06-30T13:41:50.922Z,25.60
2023-06-30T13:44:18.868Z,25.20
2023-06-30T13:46:46.801Z,24.94
2023-06-30T13:49:14.949Z,25.18
2023-06-30T13:51:43.564Z,25.40
2023-06-30T13:54:12.808Z,25.22
2023-06-30T13:56:40.710Z,25.36
2023-06-30T13:59:08.601Z,25.42
2023-06-30T14:01:37.645Z,25.51
2023-06-30T14:04:05.934Z,25.56
2023-06-30T14:06:33.852Z,25.51
2023-06-30T14:09:01.774Z,25.73
2023-06-30T14:11:31.125Z,25.58
2023-06-30T14:14:04.345Z,25.16
2023-06-30T14:16:32.635Z,25.16
2023-06-30T14:19:00.564Z,25.05
2023-06-30T14:21:29.286Z,25.25
2023-06-30T14:23:58.033Z,25.28
2023-06-30T14:26:27.180Z,24.99
2023-06-30T14:28:56.729Z,25.09
2023-06-30T14:31:24.743Z,24.92
2023-06-30T14:33:52.689Z,24.78
2023-06-30T14:36:20.513Z,24.67
2023-06-30T14:38:48.448Z,24.46
2023-06-30T14:41:16.373Z,24.53
2023-06-30T14:43:44.278Z,24.58
2023-06-30T14:46:13.511Z,24.82
2023-06-30T14:48:42.193Z,24.78
2023-06-30T14:51:10.219Z,24.81
2023-06-30T14:53:38.074Z,24.89
2023-06-30T14:56:06.524Z,24.63
2023-06-30T14:58:34.491Z,24.61
2023-06-30T15:01:02.380Z,24.82
2023-06-30T15:03:31.668Z,24.78
2023-06-30T15:05:59.639Z,25.01
2023-06-30T15:08:27.491Z,24.30
2023-06-30T15:10:55.378Z,24.40
2023-06-30T15:13:23.294Z,24.54
2023-06-30T15:15:51.964Z,24.48
2023-06-30T15:18:19.871Z,24.46
2023-06-30T15:20:49.084Z,24.53
2023-06-30T15:23:16.984Z,24.50
2023-06-30T15:25:45.233Z,24.36
2023-06-30T15:28:13.387Z,24.50
2023-06-30T15:30:41.195Z,24.36
2023-06-30T15:33:09.868Z,24.37
2023-06-30T15:35:38.357Z,24.20
2023-06-30T15:38:07.740Z,24.37
2023-06-30T15:40:35.684Z,23.93
2023-06-30T15:43:05.011Z,23.89
2023-06-30T15:45:33.193Z,23.78
2023-06-30T15:48:01.135Z,23.75
2023-06-30T15:50:29.052Z,23.79
2023-06-30T15:52:56.945Z,23.90
2023-06-30T15:55:26.229Z,24.00
2023-06-30T15:57:57.199Z,23.90
2023-06-30T16:00:25.279Z,24.00
2023-06-30T16:02:55.589Z,23.99
2023-06-30T16:05:24.132Z,23.97
2023-06-30T16:07:52.241Z,23.89
2023-06-30T16:10:20.232Z,23.89
2023-06-30T16:12:49.541Z,23.93
2023-06-30T16:15:17.439Z,23.69
2023-06-30T16:17:45.417Z,23.28
2023-06-30T16:20:13.870Z,23.39
2023-06-30T16:22:41.763Z,23.39
2023-06-30T16:25:10.385Z,23.44
2023-06-30T16:27:38.352Z,23.41
2023-06-30T16:30:26.774Z,23.29
2023-06-30T16:32:58.093Z,23.51
2023-06-30T16:35:26.654Z,23.55
2023-06-30T16:37:54.928Z,23.59
2023-06-30T16:40:23.337Z,23.66
2023-06-30T16:42:51.600Z,23.59
2023-06-30T16:45:19.626Z,23.48
2023-06-30T16:47:48.991Z,23.42
2023-06-30T16:50:17.928Z,23.32
2023-06-30T16:52:46.267Z,23.32
2023-06-30T16:55:14.222Z,23.04
2023-06-30T16:57:44.018Z,22.87
2023-06-30T17:00:13.078Z,22.73
2023-06-30T17:02:40.870Z,22.78
2023-06-30T17:05:11.099Z,22.61
2023-06-30T17:07:39.067Z,22.59
2023-06-30T17:10:07.599Z,22.42
2023-06-30T17:12:35.570Z,22.39
2023-06-30T17:15:03.438Z,22.28
2023-06-30T17:17:31.313Z,22.30
2023-06-30T17:19:59.352Z,22.25
2023-06-30T17:22:28.561Z,22.20
2023-06-30T17:25:04.107Z,22.20
2023-06-30T17:27:33.406Z,22.23
2023-06-30T17:30:01.278Z,22.08
2023-06-30T17:32:29.473Z,22.08
2023-06-30T17:34:57.361Z,21.95
2023-06-30T17:37:25.230Z,22.02
2023-06-30T17:39:54.436Z,22.01
2023-06-30T17:42:22.493Z,21.84
2023-06-30T17:44:50.376Z,21.86
2023-06-30T17:47:18.301Z,21.94
2023-06-30T17:49:46.691Z,22.01
2023-06-30T17:52:15.957Z,21.88
2023-06-30T17:54:43.975Z,21.79
2023-06-30T17:57:14.381Z,21.86
2023-06-30T17:59:42.207Z,21.84
2023-06-30T18:02:10.196Z,21.88
2023-06-30T18:04:38.599Z,21.79
2023-06-30T18:07:11.638Z,21.82
2023-06-30T18:09:41.374Z,21.77
2023-06-30T18:12:10.388Z,21.75
2023-06-30T18:14:39.802Z,21.67
2023-06-30T18:17:07.962Z,21.79
2023-06-30T18:19:35.844Z,21.74
2023-06-30T18:22:03.946Z,21.65
2023-06-30T18:24:31.872Z,21.65
2023-06-30T18:26:59.833Z,21.67
2023-06-30T18:29:27.697Z,21.64
2023-06-30T18:32:00.262Z,21.64
2023-06-30T18:34:28.827Z,21.53
2023-06-30T18:36:56.776Z,21.45
2023-06-30T18:39:24.717Z,21.43
2023-06-30T18:41:52.769Z,21.37
2023-06-30T18:44:20.648Z,21.26
2023-06-30T18:46:48.774Z,21.11
2023-06-30T18:49:18.033Z,21.10
2023-06-30T18:51:45.918Z,21.06
2023-06-30T18:54:13.786Z,21.03
2023-06-30T18:56:41.663Z,20.92
2023-06-30T18:59:09.550Z,20.86
2023-06-30T19:01:37.447Z,20.94
2023-06-30T19:04:06.704Z,20.86
2023-06-30T19:06:36.202Z,20.86
2023-06-30T19:09:04.673Z,20.79
2023-06-30T19:11:32.838Z,20.75
2023-06-30T19:14:00.689Z,20.71
2023-06-30T19:16:28.601Z,20.69
2023-06-30T19:18:58.481Z,20.59
2023-06-30T19:21:26.357Z,20.39
2023-06-30T19:23:59.328Z,20.29
2023-06-30T19:26:27.311Z,20.18
2023-06-30T19:28:55.181Z,20.11
2023-06-30T19:31:23.209Z,20.04
2023-06-30T19:33:51.076Z,19.93
2023-06-30T19:36:19.041Z,19.85
2023-06-30T19:38:46.887Z,19.78
2023-06-30T19:41:16.205Z,19.73
2023-06-30T19:43:44.149Z,19.57
2023-06-30T19:46:12.710Z,19.53
2023-06-30T19:48:42.706Z,19.47
2023-06-30T19:51:10.643Z,19.37
2023-06-30T19:53:38.460Z,19.29
2023-06-30T19:56:06.453Z,19.20
2023-06-30T19:58:35.646Z,19.12
2023-06-30T20:01:04.423Z,19.22
2023-06-30T20:03:32.421Z,19.16
2023-06-30T20:06:00.429Z,19.02
2023-06-30T20:08:28.277Z,18.91
2023-06-30T20:10:56.103Z,18.76
2023-06-30T20:13:24.020Z,18.73
2023-06-30T20:15:53.410Z,18.75
2023-06-30T20:18:21.317Z,18.67
2023-06-30T20:20:49.175Z,18.55
2023-06-30T20:23:17.050Z,18.52
2023-06-30T20:25:45.209Z,18.55
2023-06-30T20:28:13.244Z,18.67
2023-06-30T20:30:41.176Z,18.73
2023-06-30T20:33:10.440Z,18.75
2023-06-30T20:35:38.389Z,18.79
2023-06-30T20:38:06.269Z,18.82
2023-06-30T20:40:34.649Z,18.85
2023-06-30T20:43:02.563Z,18.87
2023-06-30T20:45:31.573Z,18.85
2023-06-30T20:47:59.407Z,18.88
2023-06-30T20:50:29.295Z,18.78
2023-06-30T20:52:57.766Z,18.81
2023-06-30T20:55:25.612Z,18.98
2023-06-30T20:57:53.549Z,19.12
2023-06-30T21:00:21.815Z,19.06
2023-06-30T21:02:49.838Z,19.02
2023-06-30T21:05:17.785Z,18.92
2023-06-30T21:07:47.214Z,18.84
2023-06-30T21:10:16.064Z,18.81
2023-06-30T21:12:44.010Z,18.71
2023-06-30T21:15:12.723Z,18.67
2023-06-30T21:17:40.919Z,18.60
2023-06-30T21:20:09.982Z,18.52
2023-06-30T21:22:37.693Z,18.48
2023-06-30T21:25:07.676Z,18.55
2023-06-30T21:27:35.635Z,18.54
2023-06-30T21:30:03.705Z,18.55
2023-06-30T21:32:31.572Z,18.57
2023-06-30T21:34:59.508Z,18.55
2023-06-30T21:37:27.345Z,18.58
2023-06-30T21:39:55.188Z,18.58
2023-06-30T21:42:24.371Z,18.60
2023-06-30T21:44:52.880Z,18.60
2023-06-30T21:47:20.750Z,18.55
2023-06-30T21:49:48.594Z,18.52
2023-06-30T21:52:16.672Z,18.44
2023-06-30T21:54:48.694Z,18.43
2023-06-30T21:57:17.029Z,18.38
2023-06-30T21:59:46.258Z,18.36
2023-06-30T22:02:14.383Z,18.34
2023-06-30T22:04:42.475Z,18.26
2023-06-30T22:07:10.407Z,18.16
2023-06-30T22:09:38.282Z,18.13
2023-06-30T22:12:07.631Z,18.07
2023-06-30T22:14:36.893Z,18.04
2023-06-30T22:17:06.749Z,17.97
2023-06-30T22:19:37.935Z,17.94
2023-06-30T22:22:06.548Z,17.96
2023-06-30T22:24:34.406Z,17.92
2023-06-30T22:27:02.252Z,17.89
2023-06-30T22:29:30.139Z,17.82
2023-06-30T22:31:57.951Z,17.80
2023-06-30T22:34:27.572Z,17.79
2023-06-30T22:36:55.423Z,17.96
2023-06-30T22:39:23.281Z,18.09
2023-06-30T22:41:51.245Z,18.23
2023-06-30T22:44:19.143Z,18.36
2023-06-30T22:46:47.028Z,18.36
2023-06-30T22:49:14.972Z,18.27
2023-06-30T22:51:44.160Z,18.16
2023-06-30T22:54:11.858Z,18.00
2023-06-30T22:56:39.852Z,17.96
2023-06-30T22:59:07.731Z,17.83
2023-06-30T23:01:35.664Z,17.79
2023-06-30T23:04:03.651Z,17.73
2023-06-30T23:06:32.217Z,17.75
2023-06-30T23:09:02.840Z,17.76
2023-06-30T23:11:30.809Z,17.76
2023-06-30T23:13:58.797Z,17.73
2023-06-30T23:16:26.716Z,17.73
2023-06-30T23:18:54.618Z,17.69
2023-06-30T23:21:22.579Z,17.78
2023-06-30T23:23:50.494Z,17.80
2023-06-30T23:26:25.086Z,17.82
2023-06-30T23:28:54.174Z,17.80
2023-06-30T23:31:22.545Z,17.90
2023-06-30T23:33:53.299Z,17.96
2023-06-30T23:36:21.775Z,17.96
2023-06-30T23:38:49.646Z,18.00
2023-06-30T23:41:18.851Z,18.01
2023-06-30T23:43:46.623Z,17.94
2023-06-30T23:46:19.668Z,17.96
2023-06-30T23:48:48.323Z,17.87
2023-06-30T23:51:16.149Z,17.96
2023-06-30T23:53:44.014Z,17.93
2023-06-30T23:56:12.022Z,17.89
2023-06-30T23:58:41.268Z,17.97
